sensor_id;sensor_type;location;lat;lon;timestamp;P1;durP1;ratioP1;P2;durP2;ratioP2
55728;SDS011;41633;39.720;2.910;2024-01-30T00:00:23;16.02;;;5.95;;
55728;SDS011;41633;39.720;2.910;2024-01-30T00:02:49;15.00;;;4.90;;
55728;SDS011;41633;39.720;2.910;2024-01-30T00:05:16;15.55;;;5.30;;
55728;SDS011;41633;39.720;2.910;2024-01-30T00:07:42;15.20;;;5.05;;
55728;SDS011;41633;39.720;2.910;2024-01-30T00:10:10;16.00;;;4.60;;
55728;SDS011;41633;39.720;2.910;2024-01-30T00:12:36;16.33;;;4.78;;
55728;SDS011;41633;39.720;2.910;2024-01-30T00:15:02;13.52;;;4.80;;
55728;SDS011;41633;39.720;2.910;2024-01-30T00:17:32;12.77;;;4.22;;
55728;SDS011;41633;39.720;2.910;2024-01-30T00:20:01;16.77;;;5.13;;
55728;SDS011;41633;39.720;2.910;2024-01-30T00:22:33;16.98;;;5.32;;
55728;SDS011;41633;39.720;2.910;2024-01-30T00:24:59;13.20;;;4.47;;
55728;SDS011;41633;39.720;2.910;2024-01-30T00:27:26;17.70;;;5.50;;
55728;SDS011;41633;39.720;2.910;2024-01-30T00:29:53;17.05;;;5.78;;
55728;SDS011;41633;39.720;2.910;2024-01-30T00:32:20;14.05;;;5.25;;
55728;SDS011;41633;39.720;2.910;2024-01-30T00:37:12;16.17;;;5.50;;
55728;SDS011;41633;39.720;2.910;2024-01-30T00:39:38;18.65;;;4.82;;
55728;SDS011;41633;39.720;2.910;2024-01-30T00:42:04;12.05;;;4.30;;
55728;SDS011;41633;39.720;2.910;2024-01-30T00:44:34;14.77;;;5.00;;
55728;SDS011;41633;39.720;2.910;2024-01-30T00:47:05;15.77;;;4.78;;
55728;SDS011;41633;39.720;2.910;2024-01-30T00:49:31;14.55;;;4.22;;
55728;SDS011;41633;39.720;2.910;2024-01-30T00:51:57;14.38;;;4.20;;
55728;SDS011;41633;39.720;2.910;2024-01-30T00:54:24;14.60;;;4.70;;
55728;SDS011;41633;39.720;2.910;2024-01-30T00:56:52;17.85;;;4.65;;
55728;SDS011;41633;39.720;2.910;2024-01-30T00:59:18;14.23;;;4.20;;
55728;SDS011;41633;39.720;2.910;2024-01-30T01:01:44;17.23;;;5.32;;
55728;SDS011;41633;39.720;2.910;2024-01-30T01:04:12;14.00;;;4.82;;
55728;SDS011;41633;39.720;2.910;2024-01-30T01:06:39;14.20;;;4.90;;
55728;SDS011;41633;39.720;2.910;2024-01-30T01:09:09;15.07;;;4.78;;
55728;SDS011;41633;39.720;2.910;2024-01-30T01:11:35;15.27;;;5.03;;
55728;SDS011;41633;39.720;2.910;2024-01-30T01:14:02;14.20;;;4.65;;
55728;SDS011;41633;39.720;2.910;2024-01-30T01:16:29;15.23;;;4.90;;
55728;SDS011;41633;39.720;2.910;2024-01-30T01:18:57;15.13;;;4.97;;
55728;SDS011;41633;39.720;2.910;2024-01-30T01:21:25;15.30;;;4.70;;
55728;SDS011;41633;39.720;2.910;2024-01-30T01:26:17;16.15;;;4.97;;
55728;SDS011;41633;39.720;2.910;2024-01-30T01:28:44;14.60;;;4.97;;
55728;SDS011;41633;39.720;2.910;2024-01-30T01:31:10;15.10;;;4.68;;
55728;SDS011;41633;39.720;2.910;2024-01-30T01:33:39;12.57;;;3.85;;
55728;SDS011;41633;39.720;2.910;2024-01-30T01:36:09;14.10;;;4.72;;
55728;SDS011;41633;39.720;2.910;2024-01-30T01:38:37;12.95;;;4.35;;
55728;SDS011;41633;39.720;2.910;2024-01-30T01:41:04;13.85;;;4.22;;
55728;SDS011;41633;39.720;2.910;2024-01-30T01:43:31;14.88;;;4.93;;
55728;SDS011;41633;39.720;2.910;2024-01-30T01:45:57;12.75;;;4.03;;
55728;SDS011;41633;39.720;2.910;2024-01-30T01:48:24;11.73;;;3.63;;
55728;SDS011;41633;39.720;2.910;2024-01-30T01:50:51;15.32;;;4.25;;
55728;SDS011;41633;39.720;2.910;2024-01-30T01:53:17;15.13;;;4.25;;
55728;SDS011;41633;39.720;2.910;2024-01-30T01:55:45;15.30;;;4.05;;
55728;SDS011;41633;39.720;2.910;2024-01-30T01:58:13;14.43;;;4.13;;
55728;SDS011;41633;39.720;2.910;2024-01-30T02:00:39;12.73;;;3.97;;
55728;SDS011;41633;39.720;2.910;2024-01-30T02:03:06;12.40;;;3.70;;
55728;SDS011;41633;39.720;2.910;2024-01-30T02:05:35;11.32;;;3.67;;
55728;SDS011;41633;39.720;2.910;2024-01-30T02:08:04;14.50;;;3.75;;
55728;SDS011;41633;39.720;2.910;2024-01-30T02:10:34;12.48;;;3.67;;
55728;SDS011;41633;39.720;2.910;2024-01-30T02:13:10;12.52;;;3.60;;
55728;SDS011;41633;39.720;2.910;2024-01-30T02:15:37;13.75;;;3.70;;
55728;SDS011;41633;39.720;2.910;2024-01-30T02:18:04;14.95;;;4.43;;
55728;SDS011;41633;39.720;2.910;2024-01-30T02:20:30;13.48;;;3.63;;
55728;SDS011;41633;39.720;2.910;2024-01-30T02:22:58;12.82;;;3.80;;
55728;SDS011;41633;39.720;2.910;2024-01-30T02:25:33;15.55;;;4.07;;
55728;SDS011;41633;39.720;2.910;2024-01-30T02:27:59;13.23;;;3.67;;
55728;SDS011;41633;39.720;2.910;2024-01-30T02:30:26;15.60;;;4.03;;
55728;SDS011;41633;39.720;2.910;2024-01-30T02:32:52;13.90;;;4.28;;
55728;SDS011;41633;39.720;2.910;2024-01-30T02:35:18;13.05;;;3.83;;
55728;SDS011;41633;39.720;2.910;2024-01-30T02:37:44;13.57;;;4.00;;
55728;SDS011;41633;39.720;2.910;2024-01-30T02:40:11;11.57;;;3.92;;
55728;SDS011;41633;39.720;2.910;2024-01-30T02:42:37;14.77;;;4.13;;
55728;SDS011;41633;39.720;2.910;2024-01-30T02:45:04;15.13;;;4.30;;
55728;SDS011;41633;39.720;2.910;2024-01-30T02:47:31;17.40;;;4.70;;
55728;SDS011;41633;39.720;2.910;2024-01-30T02:49:57;15.13;;;4.70;;
55728;SDS011;41633;39.720;2.910;2024-01-30T02:52:23;15.38;;;4.00;;
55728;SDS011;41633;39.720;2.910;2024-01-30T02:54:50;14.73;;;4.53;;
55728;SDS011;41633;39.720;2.910;2024-01-30T02:57:17;12.82;;;4.28;;
55728;SDS011;41633;39.720;2.910;2024-01-30T02:59:44;14.20;;;3.95;;
55728;SDS011;41633;39.720;2.910;2024-01-30T03:02:10;15.07;;;4.15;;
55728;SDS011;41633;39.720;2.910;2024-01-30T03:04:40;15.13;;;3.92;;
55728;SDS011;41633;39.720;2.910;2024-01-30T03:07:08;16.52;;;4.50;;
55728;SDS011;41633;39.720;2.910;2024-01-30T03:09:37;11.90;;;3.40;;
55728;SDS011;41633;39.720;2.910;2024-01-30T03:12:04;14.88;;;4.28;;
55728;SDS011;41633;39.720;2.910;2024-01-30T03:16:57;15.80;;;4.35;;
55728;SDS011;41633;39.720;2.910;2024-01-30T03:19:24;14.00;;;3.80;;
55728;SDS011;41633;39.720;2.910;2024-01-30T03:24:17;12.77;;;3.78;;
55728;SDS011;41633;39.720;2.910;2024-01-30T03:26:44;11.98;;;3.70;;
55728;SDS011;41633;39.720;2.910;2024-01-30T03:29:10;15.20;;;3.65;;
55728;SDS011;41633;39.720;2.910;2024-01-30T03:31:38;11.48;;;3.10;;
55728;SDS011;41633;39.720;2.910;2024-01-30T03:34:06;13.43;;;3.20;;
55728;SDS011;41633;39.720;2.910;2024-01-30T03:36:33;14.15;;;3.58;;
55728;SDS011;41633;39.720;2.910;2024-01-30T03:39:01;16.05;;;4.10;;
55728;SDS011;41633;39.720;2.910;2024-01-30T03:41:28;14.00;;;4.03;;
55728;SDS011;41633;39.720;2.910;2024-01-30T03:46:20;15.43;;;3.72;;
55728;SDS011;41633;39.720;2.910;2024-01-30T03:48:47;14.32;;;3.35;;
55728;SDS011;41633;39.720;2.910;2024-01-30T03:53:43;19.48;;;3.88;;
55728;SDS011;41633;39.720;2.910;2024-01-30T03:56:12;17.17;;;3.90;;
55728;SDS011;41633;39.720;2.910;2024-01-30T03:58:39;13.35;;;3.58;;
55728;SDS011;41633;39.720;2.910;2024-01-30T04:01:06;16.13;;;4.07;;
55728;SDS011;41633;39.720;2.910;2024-01-30T04:03:32;14.93;;;3.80;;
55728;SDS011;41633;39.720;2.910;2024-01-30T04:05:58;13.85;;;3.20;;
55728;SDS011;41633;39.720;2.910;2024-01-30T04:08:26;14.65;;;4.15;;
55728;SDS011;41633;39.720;2.910;2024-01-30T04:10:52;12.82;;;3.78;;
55728;SDS011;41633;39.720;2.910;2024-01-30T04:13:19;17.38;;;4.10;;
55728;SDS011;41633;39.720;2.910;2024-01-30T04:15:45;14.90;;;3.72;;
55728;SDS011;41633;39.720;2.910;2024-01-30T04:18:11;17.77;;;4.18;;
55728;SDS011;41633;39.720;2.910;2024-01-30T04:20:40;14.30;;;3.92;;
55728;SDS011;41633;39.720;2.910;2024-01-30T04:23:06;15.98;;;3.65;;
55728;SDS011;41633;39.720;2.910;2024-01-30T04:25:35;16.23;;;3.67;;
55728;SDS011;41633;39.720;2.910;2024-01-30T04:28:01;16.33;;;4.18;;
55728;SDS011;41633;39.720;2.910;2024-01-30T04:30:27;14.18;;;3.83;;
55728;SDS011;41633;39.720;2.910;2024-01-30T04:32:53;14.60;;;3.80;;
55728;SDS011;41633;39.720;2.910;2024-01-30T04:35:20;13.90;;;3.97;;
55728;SDS011;41633;39.720;2.910;2024-01-30T04:37:49;12.55;;;3.30;;
55728;SDS011;41633;39.720;2.910;2024-01-30T04:40:17;15.00;;;3.70;;
55728;SDS011;41633;39.720;2.910;2024-01-30T04:42:45;18.58;;;4.22;;
55728;SDS011;41633;39.720;2.910;2024-01-30T04:45:12;16.65;;;4.15;;
55728;SDS011;41633;39.720;2.910;2024-01-30T04:47:38;13.43;;;3.30;;
55728;SDS011;41633;39.720;2.910;2024-01-30T04:50:07;14.07;;;3.65;;
55728;SDS011;41633;39.720;2.910;2024-01-30T04:52:35;16.10;;;3.90;;
55728;SDS011;41633;39.720;2.910;2024-01-30T04:55:02;13.52;;;3.67;;
55728;SDS011;41633;39.720;2.910;2024-01-30T04:57:28;15.68;;;4.00;;
55728;SDS011;41633;39.720;2.910;2024-01-30T04:59:56;21.08;;;4.57;;
55728;SDS011;41633;39.720;2.910;2024-01-30T05:02:22;14.20;;;3.90;;
55728;SDS011;41633;39.720;2.910;2024-01-30T05:04:48;15.65;;;4.22;;
55728;SDS011;41633;39.720;2.910;2024-01-30T05:07:15;19.52;;;4.20;;
55728;SDS011;41633;39.720;2.910;2024-01-30T05:09:41;14.45;;;3.95;;
55728;SDS011;41633;39.720;2.910;2024-01-30T05:12:07;14.88;;;3.65;;
55728;SDS011;41633;39.720;2.910;2024-01-30T05:14:33;16.13;;;3.92;;
55728;SDS011;41633;39.720;2.910;2024-01-30T05:17:00;14.00;;;3.35;;
55728;SDS011;41633;39.720;2.910;2024-01-30T05:19:29;14.43;;;3.70;;
55728;SDS011;41633;39.720;2.910;2024-01-30T05:21:55;13.23;;;3.53;;
55728;SDS011;41633;39.720;2.910;2024-01-30T05:24:21;13.13;;;3.50;;
55728;SDS011;41633;39.720;2.910;2024-01-30T05:26:48;12.52;;;3.33;;
55728;SDS011;41633;39.720;2.910;2024-01-30T05:29:16;17.42;;;4.05;;
55728;SDS011;41633;39.720;2.910;2024-01-30T05:31:43;17.15;;;4.10;;
55728;SDS011;41633;39.720;2.910;2024-01-30T05:34:10;12.55;;;3.80;;
55728;SDS011;41633;39.720;2.910;2024-01-30T05:36:38;15.35;;;4.07;;
55728;SDS011;41633;39.720;2.910;2024-01-30T05:39:04;15.00;;;4.07;;
55728;SDS011;41633;39.720;2.910;2024-01-30T05:41:31;15.10;;;4.20;;
55728;SDS011;41633;39.720;2.910;2024-01-30T05:43:58;14.90;;;4.00;;
55728;SDS011;41633;39.720;2.910;2024-01-30T05:46:26;15.93;;;3.92;;
55728;SDS011;41633;39.720;2.910;2024-01-30T05:48:52;15.27;;;3.58;;
55728;SDS011;41633;39.720;2.910;2024-01-30T05:51:19;16.70;;;4.00;;
55728;SDS011;41633;39.720;2.910;2024-01-30T05:53:45;14.65;;;4.10;;
55728;SDS011;41633;39.720;2.910;2024-01-30T05:56:11;16.42;;;3.80;;
55728;SDS011;41633;39.720;2.910;2024-01-30T05:58:37;15.43;;;3.33;;
55728;SDS011;41633;39.720;2.910;2024-01-30T06:01:07;18.88;;;4.22;;
55728;SDS011;41633;39.720;2.910;2024-01-30T06:03:36;18.58;;;4.10;;
55728;SDS011;41633;39.720;2.910;2024-01-30T06:06:05;16.52;;;4.07;;
55728;SDS011;41633;39.720;2.910;2024-01-30T06:08:32;14.88;;;4.15;;
55728;SDS011;41633;39.720;2.910;2024-01-30T06:11:01;16.92;;;4.20;;
55728;SDS011;41633;39.720;2.910;2024-01-30T06:13:29;14.30;;;3.85;;
55728;SDS011;41633;39.720;2.910;2024-01-30T06:15:57;15.07;;;4.10;;
55728;SDS011;41633;39.720;2.910;2024-01-30T06:20:53;16.52;;;4.00;;
55728;SDS011;41633;39.720;2.910;2024-01-30T06:23:19;16.88;;;3.75;;
55728;SDS011;41633;39.720;2.910;2024-01-30T06:25:45;16.60;;;4.68;;
55728;SDS011;41633;39.720;2.910;2024-01-30T06:28:12;18.80;;;4.75;;
55728;SDS011;41633;39.720;2.910;2024-01-30T06:30:40;14.23;;;3.88;;
55728;SDS011;41633;39.720;2.910;2024-01-30T06:33:06;14.75;;;4.60;;
55728;SDS011;41633;39.720;2.910;2024-01-30T06:35:33;15.70;;;4.60;;
55728;SDS011;41633;39.720;2.910;2024-01-30T06:38:01;15.35;;;4.28;;
55728;SDS011;41633;39.720;2.910;2024-01-30T06:40:28;16.10;;;4.80;;
55728;SDS011;41633;39.720;2.910;2024-01-30T06:42:56;22.15;;;4.50;;
55728;SDS011;41633;39.720;2.910;2024-01-30T06:45:23;18.00;;;4.60;;
55728;SDS011;41633;39.720;2.910;2024-01-30T06:47:51;15.48;;;3.80;;
55728;SDS011;41633;39.720;2.910;2024-01-30T06:50:20;18.13;;;4.93;;
55728;SDS011;41633;39.720;2.910;2024-01-30T06:52:55;20.40;;;5.63;;
55728;SDS011;41633;39.720;2.910;2024-01-30T06:55:21;16.25;;;5.43;;
55728;SDS011;41633;39.720;2.910;2024-01-30T06:57:47;19.95;;;6.50;;
55728;SDS011;41633;39.720;2.910;2024-01-30T07:00:13;15.75;;;4.72;;
55728;SDS011;41633;39.720;2.910;2024-01-30T07:02:41;14.30;;;4.68;;
55728;SDS011;41633;39.720;2.910;2024-01-30T07:05:07;17.33;;;6.32;;
55728;SDS011;41633;39.720;2.910;2024-01-30T07:07:35;20.52;;;5.82;;
55728;SDS011;41633;39.720;2.910;2024-01-30T07:10:01;17.67;;;5.22;;
55728;SDS011;41633;39.720;2.910;2024-01-30T07:12:30;16.70;;;5.13;;
55728;SDS011;41633;39.720;2.910;2024-01-30T07:14:57;19.88;;;6.40;;
55728;SDS011;41633;39.720;2.910;2024-01-30T07:17:24;18.02;;;4.90;;
55728;SDS011;41633;39.720;2.910;2024-01-30T07:19:52;17.25;;;4.80;;
55728;SDS011;41633;39.720;2.910;2024-01-30T07:22:18;16.50;;;4.70;;
55728;SDS011;41633;39.720;2.910;2024-01-30T07:24:44;14.65;;;4.65;;
55728;SDS011;41633;39.720;2.910;2024-01-30T07:27:12;15.38;;;4.20;;
55728;SDS011;41633;39.720;2.910;2024-01-30T07:29:39;17.35;;;4.68;;
55728;SDS011;41633;39.720;2.910;2024-01-30T07:32:07;18.73;;;4.97;;
55728;SDS011;41633;39.720;2.910;2024-01-30T07:34:33;16.38;;;4.63;;
55728;SDS011;41633;39.720;2.910;2024-01-30T07:36:59;16.95;;;5.82;;
55728;SDS011;41633;39.720;2.910;2024-01-30T07:39:26;22.13;;;6.13;;
55728;SDS011;41633;39.720;2.910;2024-01-30T07:41:52;18.17;;;5.22;;
55728;SDS011;41633;39.720;2.910;2024-01-30T07:44:20;20.05;;;4.97;;
55728;SDS011;41633;39.720;2.910;2024-01-30T07:46:46;17.05;;;5.30;;
55728;SDS011;41633;39.720;2.910;2024-01-30T07:49:13;19.20;;;5.20;;
55728;SDS011;41633;39.720;2.910;2024-01-30T07:51:42;19.60;;;4.85;;
55728;SDS011;41633;39.720;2.910;2024-01-30T07:54:14;15.65;;;4.90;;
55728;SDS011;41633;39.720;2.910;2024-01-30T07:56:41;18.13;;;4.85;;
55728;SDS011;41633;39.720;2.910;2024-01-30T07:59:10;16.73;;;4.85;;
55728;SDS011;41633;39.720;2.910;2024-01-30T08:01:37;16.55;;;5.00;;
55728;SDS011;41633;39.720;2.910;2024-01-30T08:04:03;16.00;;;5.38;;
55728;SDS011;41633;39.720;2.910;2024-01-30T08:08:56;14.98;;;5.18;;
55728;SDS011;41633;39.720;2.910;2024-01-30T08:11:24;17.65;;;5.10;;
55728;SDS011;41633;39.720;2.910;2024-01-30T08:13:54;17.15;;;4.72;;
55728;SDS011;41633;39.720;2.910;2024-01-30T08:16:22;15.85;;;4.40;;
55728;SDS011;41633;39.720;2.910;2024-01-30T08:18:48;19.95;;;4.55;;
55728;SDS011;41633;39.720;2.910;2024-01-30T08:21:15;17.38;;;4.45;;
55728;SDS011;41633;39.720;2.910;2024-01-30T08:23:42;15.32;;;4.45;;
55728;SDS011;41633;39.720;2.910;2024-01-30T08:26:10;16.10;;;4.25;;
55728;SDS011;41633;39.720;2.910;2024-01-30T08:28:37;16.73;;;4.30;;
55728;SDS011;41633;39.720;2.910;2024-01-30T08:31:09;17.60;;;4.30;;
55728;SDS011;41633;39.720;2.910;2024-01-30T08:33:38;15.38;;;5.28;;
55728;SDS011;41633;39.720;2.910;2024-01-30T08:36:06;18.67;;;5.95;;
55728;SDS011;41633;39.720;2.910;2024-01-30T08:38:32;14.43;;;5.95;;
55728;SDS011;41633;39.720;2.910;2024-01-30T08:41:00;19.33;;;6.55;;
55728;SDS011;41633;39.720;2.910;2024-01-30T08:43:26;15.80;;;6.07;;
55728;SDS011;41633;39.720;2.910;2024-01-30T08:45:53;16.95;;;5.72;;
55728;SDS011;41633;39.720;2.910;2024-01-30T08:50:48;15.30;;;6.13;;
55728;SDS011;41633;39.720;2.910;2024-01-30T08:53:15;17.92;;;6.82;;
55728;SDS011;41633;39.720;2.910;2024-01-30T08:55:41;18.92;;;6.95;;
55728;SDS011;41633;39.720;2.910;2024-01-30T09:00:35;20.33;;;6.57;;
55728;SDS011;41633;39.720;2.910;2024-01-30T09:03:01;14.43;;;5.43;;
55728;SDS011;41633;39.720;2.910;2024-01-30T09:07:53;14.40;;;4.22;;
55728;SDS011;41633;39.720;2.910;2024-01-30T09:12:45;15.15;;;4.07;;
55728;SDS011;41633;39.720;2.910;2024-01-30T09:15:11;14.52;;;3.75;;
55728;SDS011;41633;39.720;2.910;2024-01-30T09:20:04;12.98;;;3.20;;
55728;SDS011;41633;39.720;2.910;2024-01-30T09:22:31;13.10;;;3.40;;
55728;SDS011;41633;39.720;2.910;2024-01-30T09:24:57;12.15;;;3.35;;
55728;SDS011;41633;39.720;2.910;2024-01-30T09:27:23;12.13;;;3.20;;
55728;SDS011;41633;39.720;2.910;2024-01-30T09:29:50;15.60;;;3.30;;
55728;SDS011;41633;39.720;2.910;2024-01-30T09:32:16;12.77;;;2.92;;
55728;SDS011;41633;39.720;2.910;2024-01-30T09:34:42;16.20;;;3.05;;
55728;SDS011;41633;39.720;2.910;2024-01-30T09:37:09;11.27;;;3.10;;
55728;SDS011;41633;39.720;2.910;2024-01-30T09:39:35;11.38;;;2.78;;
55728;SDS011;41633;39.720;2.910;2024-01-30T09:44:47;12.15;;;2.78;;
55728;SDS011;41633;39.720;2.910;2024-01-30T09:47:17;10.68;;;2.53;;
55728;SDS011;41633;39.720;2.910;2024-01-30T09:49:45;14.32;;;3.28;;
55728;SDS011;41633;39.720;2.910;2024-01-30T09:52:11;11.73;;;3.13;;
55728;SDS011;41633;39.720;2.910;2024-01-30T09:54:41;12.55;;;2.75;;
55728;SDS011;41633;39.720;2.910;2024-01-30T09:57:08;15.60;;;3.30;;
55728;SDS011;41633;39.720;2.910;2024-01-30T09:59:36;11.32;;;2.63;;
55728;SDS011;41633;39.720;2.910;2024-01-30T10:02:03;12.68;;;2.72;;
55728;SDS011;41633;39.720;2.910;2024-01-30T10:04:32;12.82;;;2.80;;
55728;SDS011;41633;39.720;2.910;2024-01-30T10:07:01;10.05;;;2.13;;
55728;SDS011;41633;39.720;2.910;2024-01-30T10:09:31;10.68;;;2.58;;
55728;SDS011;41633;39.720;2.910;2024-01-30T10:11:58;10.85;;;2.63;;
55728;SDS011;41633;39.720;2.910;2024-01-30T10:14:25;11.35;;;2.47;;
55728;SDS011;41633;39.720;2.910;2024-01-30T10:16:52;12.93;;;2.72;;
55728;SDS011;41633;39.720;2.910;2024-01-30T10:19:18;12.00;;;2.90;;
55728;SDS011;41633;39.720;2.910;2024-01-30T10:21:45;12.10;;;2.90;;
55728;SDS011;41633;39.720;2.910;2024-01-30T10:24:12;13.27;;;2.90;;
55728;SDS011;41633;39.720;2.910;2024-01-30T10:26:39;11.63;;;2.70;;
55728;SDS011;41633;39.720;2.910;2024-01-30T10:29:05;13.43;;;3.35;;
55728;SDS011;41633;39.720;2.910;2024-01-30T10:31:31;11.93;;;2.92;;
55728;SDS011;41633;39.720;2.910;2024-01-30T10:33:58;11.98;;;2.75;;
55728;SDS011;41633;39.720;2.910;2024-01-30T10:36:28;14.05;;;3.10;;
55728;SDS011;41633;39.720;2.910;2024-01-30T10:38:55;10.13;;;2.75;;
55728;SDS011;41633;39.720;2.910;2024-01-30T10:41:25;10.23;;;2.28;;
55728;SDS011;41633;39.720;2.910;2024-01-30T10:44:02;12.43;;;2.90;;
55728;SDS011;41633;39.720;2.910;2024-01-30T10:46:31;9.10;;;2.33;;
55728;SDS011;41633;39.720;2.910;2024-01-30T10:49:01;13.07;;;2.72;;
55728;SDS011;41633;39.720;2.910;2024-01-30T10:51:27;15.73;;;3.53;;
55728;SDS011;41633;39.720;2.910;2024-01-30T10:53:55;9.88;;;2.55;;
55728;SDS011;41633;39.720;2.910;2024-01-30T10:56:23;12.82;;;2.97;;
55728;SDS011;41633;39.720;2.910;2024-01-30T10:58:50;10.18;;;2.50;;
55728;SDS011;41633;39.720;2.910;2024-01-30T11:01:19;11.40;;;2.78;;
55728;SDS011;41633;39.720;2.910;2024-01-30T11:03:48;12.57;;;3.10;;
55728;SDS011;41633;39.720;2.910;2024-01-30T11:06:23;11.98;;;3.13;;
55728;SDS011;41633;39.720;2.910;2024-01-30T11:09:04;10.93;;;2.90;;
55728;SDS011;41633;39.720;2.910;2024-01-30T11:14:25;10.82;;;3.17;;
55728;SDS011;41633;39.720;2.910;2024-01-30T11:16:51;9.13;;;2.80;;
55728;SDS011;41633;39.720;2.910;2024-01-30T11:19:23;15.27;;;3.60;;
55728;SDS011;41633;39.720;2.910;2024-01-30T11:21:52;13.52;;;3.75;;
55728;SDS011;41633;39.720;2.910;2024-01-30T11:24:22;13.52;;;3.90;;
55728;SDS011;41633;39.720;2.910;2024-01-30T11:26:55;15.18;;;4.15;;
55728;SDS011;41633;39.720;2.910;2024-01-30T11:29:27;13.15;;;3.53;;
55728;SDS011;41633;39.720;2.910;2024-01-30T11:31:59;11.85;;;3.03;;
55728;SDS011;41633;39.720;2.910;2024-01-30T11:34:25;13.98;;;3.13;;
55728;SDS011;41633;39.720;2.910;2024-01-30T11:36:59;11.80;;;3.08;;
55728;SDS011;41633;39.720;2.910;2024-01-30T11:39:25;11.52;;;3.10;;
55728;SDS011;41633;39.720;2.910;2024-01-30T11:41:54;12.90;;;3.22;;
55728;SDS011;41633;39.720;2.910;2024-01-30T11:44:22;12.23;;;3.13;;
55728;SDS011;41633;39.720;2.910;2024-01-30T11:46:49;13.23;;;3.03;;
55728;SDS011;41633;39.720;2.910;2024-01-30T11:49:16;10.23;;;2.60;;
55728;SDS011;41633;39.720;2.910;2024-01-30T11:51:46;12.27;;;3.13;;
55728;SDS011;41633;39.720;2.910;2024-01-30T11:54:14;13.90;;;3.00;;
55728;SDS011;41633;39.720;2.910;2024-01-30T11:56:40;12.90;;;2.95;;
55728;SDS011;41633;39.720;2.910;2024-01-30T11:59:07;11.07;;;3.33;;
55728;SDS011;41633;39.720;2.910;2024-01-30T12:01:33;13.05;;;3.67;;
55728;SDS011;41633;39.720;2.910;2024-01-30T12:04:00;14.80;;;2.95;;
55728;SDS011;41633;39.720;2.910;2024-01-30T12:06:29;11.57;;;3.00;;
55728;SDS011;41633;39.720;2.910;2024-01-30T12:08:59;12.80;;;3.55;;
55728;SDS011;41633;39.720;2.910;2024-01-30T12:11:26;11.82;;;3.33;;
55728;SDS011;41633;39.720;2.910;2024-01-30T12:13:56;11.43;;;3.58;;
55728;SDS011;41633;39.720;2.910;2024-01-30T12:16:26;14.02;;;3.95;;
55728;SDS011;41633;39.720;2.910;2024-01-30T12:18:59;14.43;;;3.33;;
55728;SDS011;41633;39.720;2.910;2024-01-30T12:21:26;12.43;;;3.40;;
55728;SDS011;41633;39.720;2.910;2024-01-30T12:23:54;11.85;;;2.90;;
55728;SDS011;41633;39.720;2.910;2024-01-30T12:26:21;11.48;;;3.10;;
55728;SDS011;41633;39.720;2.910;2024-01-30T12:28:48;10.20;;;2.90;;
55728;SDS011;41633;39.720;2.910;2024-01-30T12:31:15;12.50;;;3.30;;
55728;SDS011;41633;39.720;2.910;2024-01-30T12:33:41;22.55;;;4.55;;
55728;SDS011;41633;39.720;2.910;2024-01-30T12:36:07;12.18;;;4.22;;
55728;SDS011;41633;39.720;2.910;2024-01-30T12:38:36;14.18;;;3.67;;
55728;SDS011;41633;39.720;2.910;2024-01-30T12:41:02;14.07;;;3.20;;
55728;SDS011;41633;39.720;2.910;2024-01-30T12:43:29;20.30;;;3.35;;
55728;SDS011;41633;39.720;2.910;2024-01-30T12:45:56;9.88;;;3.05;;
55728;SDS011;41633;39.720;2.910;2024-01-30T12:48:23;11.30;;;3.47;;
55728;SDS011;41633;39.720;2.910;2024-01-30T12:50:50;12.30;;;3.30;;
55728;SDS011;41633;39.720;2.910;2024-01-30T12:53:16;10.65;;;3.05;;
55728;SDS011;41633;39.720;2.910;2024-01-30T12:55:44;14.88;;;3.40;;
55728;SDS011;41633;39.720;2.910;2024-01-30T12:58:10;14.00;;;3.50;;
55728;SDS011;41633;39.720;2.910;2024-01-30T13:00:38;43.28;;;7.35;;
55728;SDS011;41633;39.720;2.910;2024-01-30T13:03:04;18.00;;;4.25;;
55728;SDS011;41633;39.720;2.910;2024-01-30T13:05:31;14.07;;;3.58;;
55728;SDS011;41633;39.720;2.910;2024-01-30T13:07:59;12.75;;;3.47;;
55728;SDS011;41633;39.720;2.910;2024-01-30T13:10:26;13.35;;;2.95;;
55728;SDS011;41633;39.720;2.910;2024-01-30T13:12:55;14.02;;;3.97;;
55728;SDS011;41633;39.720;2.910;2024-01-30T13:15:21;14.20;;;3.70;;
55728;SDS011;41633;39.720;2.910;2024-01-30T13:17:48;11.63;;;3.50;;
55728;SDS011;41633;39.720;2.910;2024-01-30T13:20:16;15.57;;;3.40;;
55728;SDS011;41633;39.720;2.910;2024-01-30T13:22:47;12.07;;;2.97;;
55728;SDS011;41633;39.720;2.910;2024-01-30T13:25:16;12.13;;;3.10;;
55728;SDS011;41633;39.720;2.910;2024-01-30T13:27:44;11.75;;;2.67;;
55728;SDS011;41633;39.720;2.910;2024-01-30T13:30:10;12.68;;;3.00;;
55728;SDS011;41633;39.720;2.910;2024-01-30T13:32:37;10.88;;;3.25;;
55728;SDS011;41633;39.720;2.910;2024-01-30T13:35:04;11.10;;;3.10;;
55728;SDS011;41633;39.720;2.910;2024-01-30T13:37:30;10.82;;;2.72;;
55728;SDS011;41633;39.720;2.910;2024-01-30T13:39:56;10.65;;;2.78;;
55728;SDS011;41633;39.720;2.910;2024-01-30T13:42:23;14.13;;;3.70;;
55728;SDS011;41633;39.720;2.910;2024-01-30T13:44:50;12.95;;;4.30;;
55728;SDS011;41633;39.720;2.910;2024-01-30T13:47:16;12.77;;;3.95;;
55728;SDS011;41633;39.720;2.910;2024-01-30T13:49:45;13.00;;;3.40;;
55728;SDS011;41633;39.720;2.910;2024-01-30T13:52:11;13.32;;;4.80;;
55728;SDS011;41633;39.720;2.910;2024-01-30T13:54:37;10.38;;;3.40;;
55728;SDS011;41633;39.720;2.910;2024-01-30T13:57:05;10.52;;;2.90;;
55728;SDS011;41633;39.720;2.910;2024-01-30T13:59:33;10.68;;;3.10;;
55728;SDS011;41633;39.720;2.910;2024-01-30T14:01:59;14.38;;;3.22;;
55728;SDS011;41633;39.720;2.910;2024-01-30T14:04:26;11.00;;;3.40;;
55728;SDS011;41633;39.720;2.910;2024-01-30T14:06:53;13.57;;;3.53;;
55728;SDS011;41633;39.720;2.910;2024-01-30T14:09:19;12.63;;;3.17;;
55728;SDS011;41633;39.720;2.910;2024-01-30T14:11:46;13.23;;;4.85;;
55728;SDS011;41633;39.720;2.910;2024-01-30T14:14:13;12.93;;;4.28;;
55728;SDS011;41633;39.720;2.910;2024-01-30T14:16:40;10.23;;;3.45;;
55728;SDS011;41633;39.720;2.910;2024-01-30T14:19:06;10.77;;;4.50;;
55728;SDS011;41633;39.720;2.910;2024-01-30T14:21:32;13.20;;;4.65;;
55728;SDS011;41633;39.720;2.910;2024-01-30T14:24:00;11.68;;;4.53;;
55728;SDS011;41633;39.720;2.910;2024-01-30T14:26:28;11.48;;;3.90;;
55728;SDS011;41633;39.720;2.910;2024-01-30T14:28:54;11.40;;;4.18;;
55728;SDS011;41633;39.720;2.910;2024-01-30T14:31:20;15.70;;;4.13;;
55728;SDS011;41633;39.720;2.910;2024-01-30T14:33:48;13.82;;;3.60;;
55728;SDS011;41633;39.720;2.910;2024-01-30T14:36:14;10.90;;;3.45;;
55728;SDS011;41633;39.720;2.910;2024-01-30T14:38:40;13.20;;;3.63;;
55728;SDS011;41633;39.720;2.910;2024-01-30T14:41:06;11.68;;;3.50;;
55728;SDS011;41633;39.720;2.910;2024-01-30T14:43:33;11.82;;;3.05;;
55728;SDS011;41633;39.720;2.910;2024-01-30T14:46:02;13.23;;;4.32;;
55728;SDS011;41633;39.720;2.910;2024-01-30T14:48:31;10.85;;;3.35;;
55728;SDS011;41633;39.720;2.910;2024-01-30T14:50:58;10.10;;;2.85;;
55728;SDS011;41633;39.720;2.910;2024-01-30T14:53:24;13.23;;;3.22;;
55728;SDS011;41633;39.720;2.910;2024-01-30T14:55:50;11.40;;;3.60;;
55728;SDS011;41633;39.720;2.910;2024-01-30T14:58:16;10.65;;;3.10;;
55728;SDS011;41633;39.720;2.910;2024-01-30T15:00:43;10.80;;;3.25;;
55728;SDS011;41633;39.720;2.910;2024-01-30T15:03:10;10.88;;;3.38;;
55728;SDS011;41633;39.720;2.910;2024-01-30T15:05:37;13.90;;;3.33;;
55728;SDS011;41633;39.720;2.910;2024-01-30T15:08:03;12.35;;;3.67;;
55728;SDS011;41633;39.720;2.910;2024-01-30T15:10:31;10.80;;;3.30;;
55728;SDS011;41633;39.720;2.910;2024-01-30T15:12:57;14.57;;;4.28;;